Terminal Aerodrome Forecast
Issued by NWS

Current Version | Previous Version | Text Only | Print | Product List | Glossary On
Versions: 1 2 3 4 5 6 7 8 9 10 11 12 13 14 15 16
000
FTUS46 KMTR 261121
TAFSNS
TAF
KSNS 261121Z 2612/2712 12003KT P6SM OVC014
     FM261800 31006KT P6SM SCT016
     FM262000 28011G18KT P6SM FEW018
     FM270400 27006KT P6SM BKN016=

USA.gov is the U.S. government's official web portal to all federal, state and local government web resources and services.